createdAt,value
2022-09-28T00:00:51.829Z,9.93
2022-09-28T00:02:58.558Z,9.97
2022-09-28T00:05:03.401Z,9.97
2022-09-28T00:07:08.401Z,10.00
2022-09-28T00:09:13.461Z,10.02
2022-09-28T00:11:18.937Z,10.02
2022-09-28T00:13:23.787Z,10.03
2022-09-28T00:15:28.536Z,10.04
2022-09-28T00:17:36.511Z,10.03
2022-09-28T00:19:43.174Z,10.03
2022-09-28T00:21:48.092Z,10.02
2022-09-28T00:24:08.177Z,10.02
2022-09-28T00:26:12.945Z,10.02
2022-09-28T00:28:17.656Z,9.97
2022-09-28T00:30:22.798Z,9.98
2022-09-28T00:32:28.157Z,9.98
2022-09-28T00:34:36.635Z,9.96
2022-09-28T00:36:41.645Z,9.95
2022-09-28T00:38:46.479Z,9.98
2022-09-28T00:40:51.296Z,9.91
2022-09-28T00:42:56.640Z,9.96
2022-09-28T00:45:01.453Z,9.93
2022-09-28T00:47:16.478Z,9.86
2022-09-28T00:49:25.706Z,9.84
2022-09-28T00:51:37.108Z,9.82
2022-09-28T00:53:46.223Z,9.84
2022-09-28T00:55:54.806Z,9.86
2022-09-28T00:58:03.019Z,9.91
2022-09-28T01:00:10.157Z,9.95
2022-09-28T01:02:15.018Z,9.96
2022-09-28T01:04:20.278Z,9.98
2022-09-28T01:06:27.580Z,9.95
2022-09-28T01:08:37.130Z,9.93
2022-09-28T01:10:43.608Z,9.96
2022-09-28T01:12:48.343Z,9.93
2022-09-28T01:14:55.044Z,9.96
2022-09-28T01:17:08.446Z,9.96
2022-09-28T01:19:36.741Z,9.92
2022-09-28T01:21:53.171Z,9.90
2022-09-28T01:24:17.473Z,9.93
2022-09-28T01:26:48.670Z,9.92
2022-09-28T01:29:03.770Z,9.87
2022-09-28T01:31:15.118Z,9.89
2022-09-28T01:33:25.179Z,9.93
2022-09-28T01:35:35.541Z,9.94
2022-09-28T01:37:47.723Z,9.91
2022-09-28T01:39:55.115Z,9.93
2022-09-28T01:42:08.486Z,9.94
2022-09-28T01:44:18.078Z,9.97
2022-09-28T01:46:27.409Z,9.96
2022-09-28T01:48:38.143Z,9.97
2022-09-28T01:50:48.338Z,9.98
2022-09-28T01:52:57.262Z,10.00
2022-09-28T01:55:09.258Z,10.01
2022-09-28T01:57:21.799Z,9.98
2022-09-28T01:59:30.041Z,10.03
2022-09-28T02:01:42.151Z,10.05
2022-09-28T02:03:53.361Z,10.07
2022-09-28T02:06:01.645Z,10.12
2022-09-28T02:08:11.789Z,10.16
2022-09-28T02:10:21.477Z,10.17
2022-09-28T02:12:35.827Z,10.18
2022-09-28T02:14:44.093Z,10.19
2022-09-28T02:16:51.868Z,10.13
2022-09-28T02:19:03.446Z,10.10
2022-09-28T02:21:16.119Z,10.09
2022-09-28T02:23:25.013Z,10.04
2022-09-28T02:25:36.869Z,10.02
2022-09-28T02:27:50.272Z,10.04
2022-09-28T02:29:55.118Z,10.05
2022-09-28T02:31:59.957Z,10.01
2022-09-28T02:34:05.450Z,10.02
2022-09-28T02:36:10.939Z,9.97
2022-09-28T02:38:17.712Z,9.97
2022-09-28T02:40:28.118Z,9.98
2022-09-28T02:42:46.284Z,9.97
2022-09-28T02:45:07.806Z,9.95
2022-09-28T02:47:20.391Z,9.96
2022-09-28T02:49:34.504Z,9.94
2022-09-28T02:51:48.663Z,9.95
2022-09-28T02:54:19.979Z,9.91
2022-09-28T02:56:55.018Z,9.87
2022-09-28T02:59:12.945Z,9.83
2022-09-28T03:01:29.881Z,9.62
2022-09-28T03:03:44.314Z,9.42
2022-09-28T03:05:59.030Z,9.41
2022-09-28T03:08:07.034Z,9.53
2022-09-28T03:10:19.708Z,9.61
2022-09-28T03:12:29.384Z,9.69
2022-09-28T03:14:34.704Z,9.78
2022-09-28T03:16:46.219Z,9.83
2022-09-28T03:18:51.277Z,9.83
2022-09-28T03:20:56.369Z,9.89
2022-09-28T03:23:23.264Z,9.94
2022-09-28T03:25:26.276Z,9.99
2022-09-28T03:27:31.019Z,10.06
2022-09-28T03:29:36.258Z,10.07
2022-09-28T03:31:48.677Z,10.06
2022-09-28T03:33:54.325Z,10.02
2022-09-28T03:35:59.139Z,10.02
2022-09-28T03:38:04.321Z,10.01
2022-09-28T03:40:12.804Z,9.97
2022-09-28T03:42:17.595Z,9.88
2022-09-28T03:44:26.418Z,9.85
2022-09-28T03:46:31.278Z,9.84
2022-09-28T03:48:44.344Z,9.81
2022-09-28T03:50:49.538Z,9.72
2022-09-28T03:52:54.415Z,9.71
2022-09-28T03:54:59.946Z,9.68
2022-09-28T03:57:05.013Z,9.72
2022-09-28T03:59:10.171Z,9.75
2022-09-28T04:01:17.824Z,9.75
2022-09-28T04:03:25.688Z,9.74
2022-09-28T04:05:33.306Z,9.67
2022-09-28T04:07:38.283Z,9.67
2022-09-28T04:09:43.125Z,9.68
2022-09-28T04:12:03.306Z,9.69
2022-09-28T04:14:09.730Z,9.71
2022-09-28T04:16:15.857Z,9.71
2022-09-28T04:18:27.462Z,9.73
2022-09-28T04:20:51.272Z,9.71
2022-09-28T04:22:56.035Z,9.73
2022-09-28T04:25:00.841Z,9.79
2022-09-28T04:27:18.091Z,9.85
2022-09-28T04:29:23.743Z,9.83
2022-09-28T04:31:40.101Z,9.86
2022-09-28T04:33:44.969Z,9.89
2022-09-28T04:35:52.282Z,9.95
2022-09-28T04:37:57.255Z,10.00
2022-09-28T04:40:02.195Z,10.05
2022-09-28T04:42:08.998Z,10.08
2022-09-28T04:44:13.833Z,10.12
2022-09-28T04:46:18.729Z,10.19
2022-09-28T04:48:35.220Z,10.23
2022-09-28T04:51:06.852Z,10.22
2022-09-28T04:53:12.445Z,10.20
2022-09-28T04:55:18.472Z,10.24
2022-09-28T04:57:26.321Z,10.25
2022-09-28T04:59:32.563Z,10.25
2022-09-28T05:01:38.243Z,10.20
2022-09-28T05:03:43.014Z,10.22
2022-09-28T05:06:09.719Z,10.23
2022-09-28T05:08:19.479Z,10.25
2022-09-28T05:10:24.337Z,10.25
2022-09-28T05:12:31.371Z,10.30
2022-09-28T05:14:37.325Z,10.32
2022-09-28T05:16:43.156Z,10.33
2022-09-28T05:19:00.324Z,10.27
2022-09-28T05:21:12.915Z,10.26
2022-09-28T05:23:18.564Z,10.27
2022-09-28T05:25:24.151Z,10.31
2022-09-28T05:27:41.415Z,10.36
2022-09-28T05:30:00.369Z,10.39
2022-09-28T05:32:08.326Z,10.37
2022-09-28T05:34:17.189Z,10.40
2022-09-28T05:36:26.850Z,10.43
2022-09-28T05:38:32.356Z,10.44
2022-09-28T05:40:36.978Z,10.44
2022-09-28T05:42:42.209Z,10.48
2022-09-28T05:44:47.051Z,10.51
2022-09-28T05:46:51.790Z,10.50
2022-09-28T05:48:57.013Z,10.50
2022-09-28T05:51:01.843Z,10.47
2022-09-28T05:53:10.999Z,10.48
2022-09-28T05:55:16.311Z,10.46
2022-09-28T05:57:21.678Z,10.47
2022-09-28T05:59:26.563Z,10.49
2022-09-28T06:01:31.374Z,10.44
2022-09-28T06:03:37.605Z,10.47
2022-09-28T06:05:43.020Z,10.46
2022-09-28T06:07:48.004Z,10.46
2022-09-28T06:09:55.818Z,10.49
2022-09-28T06:12:15.999Z,10.55
2022-09-28T06:14:23.689Z,10.60
2022-09-28T06:16:28.508Z,10.64
2022-09-28T06:18:33.534Z,10.63
2022-09-28T06:20:50.419Z,10.67
2022-09-28T06:22:57.768Z,10.72
2022-09-28T06:25:05.424Z,10.70
2022-09-28T06:27:10.256Z,10.77
2022-09-28T06:29:19.818Z,10.76
2022-09-28T06:31:26.288Z,10.76
2022-09-28T06:33:32.276Z,10.81
2022-09-28T06:35:38.697Z,10.85
2022-09-28T06:37:47.346Z,10.91
2022-09-28T06:39:52.266Z,10.83
2022-09-28T06:42:04.460Z,10.74
2022-09-28T06:44:29.187Z,10.76
2022-09-28T06:47:02.247Z,10.61
2022-09-28T06:49:33.039Z,10.62
2022-09-28T06:51:57.734Z,10.61
2022-09-28T06:54:25.653Z,10.69
2022-09-28T06:56:40.375Z,10.65
2022-09-28T06:58:47.772Z,10.65
2022-09-28T07:00:54.609Z,10.68
2022-09-28T07:03:00.043Z,10.67
2022-09-28T07:05:26.743Z,10.59
2022-09-28T07:07:55.242Z,10.67
2022-09-28T07:10:18.644Z,10.62
2022-09-28T07:12:42.110Z,10.58
2022-09-28T07:15:03.932Z,10.57
2022-09-28T07:17:14.187Z,10.63
2022-09-28T07:19:19.971Z,10.67
2022-09-28T07:21:29.518Z,10.65
2022-09-28T07:23:48.807Z,10.68
2022-09-28T07:26:08.599Z,10.81
2022-09-28T07:28:46.272Z,10.78
2022-09-28T07:31:11.978Z,10.87
2022-09-28T07:33:43.702Z,10.85
2022-09-28T07:36:03.313Z,10.75
2022-09-28T07:38:10.226Z,10.77
2022-09-28T07:40:27.911Z,10.72
2022-09-28T07:42:33.450Z,10.74
2022-09-28T07:44:41.083Z,10.58
2022-09-28T07:46:48.782Z,10.42
2022-09-28T07:49:08.391Z,10.26
2022-09-28T07:51:45.579Z,9.90
2022-09-28T07:54:17.913Z,9.73
2022-09-28T07:56:42.936Z,9.53
2022-09-28T07:58:54.971Z,9.55
2022-09-28T08:01:20.298Z,9.57
2022-09-28T08:03:28.186Z,9.60
2022-09-28T08:05:35.898Z,9.56
2022-09-28T08:07:40.984Z,9.70
2022-09-28T08:09:48.248Z,9.74
2022-09-28T08:12:19.777Z,9.82
2022-09-28T08:14:37.624Z,9.77
2022-09-28T08:17:09.334Z,9.87
2022-09-28T08:19:26.283Z,9.89
2022-09-28T08:21:43.600Z,10.05
2022-09-28T08:23:48.672Z,10.15
2022-09-28T08:25:55.325Z,10.12
2022-09-28T08:28:01.163Z,10.19
2022-09-28T08:30:10.240Z,10.23
2022-09-28T08:32:20.021Z,10.40
2022-09-28T08:34:46.181Z,10.41
2022-09-28T08:37:29.793Z,10.39
2022-09-28T08:39:46.533Z,10.30
2022-09-28T08:42:08.921Z,10.45
2022-09-28T08:44:46.327Z,10.37
2022-09-28T08:47:08.510Z,10.49
2022-09-28T08:49:26.570Z,10.51
2022-09-28T08:51:54.016Z,10.60
2022-09-28T08:54:12.156Z,10.70
2022-09-28T08:56:44.393Z,10.77
2022-09-28T08:58:58.832Z,10.70
2022-09-28T09:01:06.664Z,10.66
2022-09-28T09:03:16.693Z,10.62
2022-09-28T09:05:36.022Z,10.77
2022-09-28T09:07:59.647Z,10.84
2022-09-28T09:10:14.883Z,10.91
2022-09-28T09:12:30.511Z,10.84
2022-09-28T09:14:59.911Z,10.93
2022-09-28T09:17:14.128Z,10.98
2022-09-28T09:19:49.298Z,10.96
2022-09-28T09:22:05.179Z,11.09
2022-09-28T09:24:25.080Z,11.12
2022-09-28T09:26:39.320Z,11.28
2022-09-28T09:29:12.332Z,11.31
2022-09-28T09:31:35.471Z,11.10
2022-09-28T09:34:04.518Z,10.90
2022-09-28T09:36:47.363Z,11.01
2022-09-28T09:39:28.040Z,11.06
2022-09-28T09:42:07.311Z,11.00
2022-09-28T09:44:58.704Z,11.16
2022-09-28T09:47:28.775Z,11.11
2022-09-28T09:49:39.332Z,11.10
2022-09-28T09:51:48.714Z,11.21
2022-09-28T09:54:00.157Z,11.44
2022-09-28T09:56:17.169Z,11.72
2022-09-28T09:58:39.482Z,12.17
2022-09-28T10:01:00.116Z,12.44
2022-09-28T10:03:29.563Z,12.65
2022-09-28T10:05:50.890Z,12.76
2022-09-28T10:08:04.072Z,12.74
2022-09-28T10:10:15.173Z,12.67
2022-09-28T10:12:29.248Z,12.90
2022-09-28T10:14:34.039Z,13.18
2022-09-28T10:16:48.159Z,13.17
2022-09-28T10:19:02.426Z,13.35
2022-09-28T10:21:26.948Z,13.49
2022-09-28T10:23:52.985Z,13.37
2022-09-28T10:26:04.920Z,13.36
2022-09-28T10:28:18.912Z,13.38
2022-09-28T10:30:25.739Z,13.49
2022-09-28T10:32:40.354Z,13.54
2022-09-28T10:34:50.176Z,13.25
2022-09-28T10:37:00.694Z,13.11
2022-09-28T10:39:27.341Z,13.04
2022-09-28T10:41:34.114Z,12.96
2022-09-28T10:44:06.443Z,13.01
2022-09-28T10:46:37.202Z,13.03
2022-09-28T10:48:55.153Z,12.96
2022-09-28T10:51:08.883Z,12.68
2022-09-28T10:53:20.015Z,12.46
2022-09-28T10:55:43.288Z,12.34
2022-09-28T10:57:48.315Z,12.38
2022-09-28T10:59:56.364Z,12.43
2022-09-28T11:02:04.591Z,12.56
2022-09-28T11:04:10.581Z,12.63
2022-09-28T11:06:18.769Z,12.66
2022-09-28T11:08:29.504Z,12.52
2022-09-28T11:10:37.498Z,12.69
2022-09-28T11:12:52.942Z,12.99
2022-09-28T11:15:04.758Z,13.03
2022-09-28T11:17:30.066Z,13.28
2022-09-28T11:19:35.768Z,13.26
2022-09-28T11:21:47.151Z,13.26
2022-09-28T11:24:05.996Z,13.07
2022-09-28T11:26:18.331Z,12.87
2022-09-28T11:28:29.890Z,12.80
2022-09-28T11:30:42.527Z,12.69
2022-09-28T11:33:06.504Z,12.46
2022-09-28T11:35:47.025Z,12.47
2022-09-28T11:38:13.127Z,12.19
2022-09-28T11:40:54.402Z,12.09
2022-09-28T11:43:12.322Z,12.08
2022-09-28T11:45:33.336Z,11.98
2022-09-28T11:47:50.574Z,12.02
2022-09-28T11:50:02.872Z,11.94
2022-09-28T11:52:25.610Z,12.04
2022-09-28T11:54:35.256Z,12.11
2022-09-28T11:56:44.450Z,12.23
2022-09-28T11:58:53.704Z,12.28
2022-09-28T12:01:10.341Z,12.26
2022-09-28T12:03:45.224Z,12.15
2022-09-28T12:05:54.791Z,12.37
2022-09-28T12:08:02.904Z,12.58
2022-09-28T12:10:45.570Z,12.91
2022-09-28T12:12:57.136Z,13.21
2022-09-28T12:15:08.055Z,13.27
2022-09-28T12:17:20.921Z,13.31
2022-09-28T12:19:33.613Z,13.43
2022-09-28T12:21:43.566Z,13.24
2022-09-28T12:23:51.549Z,13.08
2022-09-28T12:26:00.297Z,12.85
2022-09-28T12:28:10.180Z,12.62
2022-09-28T12:30:19.380Z,12.58
2022-09-28T12:32:32.366Z,12.55
2022-09-28T12:34:39.826Z,12.61
2022-09-28T12:36:54.447Z,12.71
2022-09-28T12:39:35.727Z,12.89
2022-09-28T12:41:50.224Z,13.13
2022-09-28T12:44:06.704Z,13.13
2022-09-28T12:46:28.319Z,13.06
2022-09-28T12:51:47.788Z,13.13
2022-09-28T12:54:04.657Z,13.11
2022-09-28T12:56:21.602Z,13.23
2022-09-28T12:58:49.383Z,13.34
2022-09-28T13:01:04.379Z,13.30
2022-09-28T13:03:47.676Z,13.42
2022-09-28T13:06:17.877Z,13.56
2022-09-28T13:08:34.486Z,13.44
2022-09-28T13:10:44.474Z,13.43
2022-09-28T13:13:05.281Z,13.35
2022-09-28T13:15:29.261Z,13.29
2022-09-28T13:17:45.949Z,13.23
2022-09-28T13:19:54.289Z,13.19
2022-09-28T13:22:09.655Z,13.32
2022-09-28T13:24:33.505Z,13.54
2022-09-28T13:26:44.184Z,13.69
2022-09-28T13:28:52.149Z,13.80
2022-09-28T13:33:08.767Z,13.98
2022-09-28T13:35:19.504Z,13.92
2022-09-28T13:37:26.949Z,13.88
2022-09-28T13:39:52.258Z,13.93
2022-09-28T13:42:00.144Z,13.91
2022-09-28T13:44:32.473Z,13.99
2022-09-28T13:46:43.714Z,13.98
2022-09-28T13:49:00.170Z,14.01
2022-09-28T13:51:14.638Z,13.87
2022-09-28T13:53:27.852Z,13.71
2022-09-28T13:55:44.441Z,13.62
2022-09-28T13:57:56.003Z,13.56
2022-09-28T14:00:10.511Z,13.68
2022-09-28T14:02:30.720Z,13.56
2022-09-28T14:04:57.730Z,13.67
2022-09-28T14:07:13.818Z,13.72
2022-09-28T14:09:44.542Z,13.71
2022-09-28T14:12:01.491Z,13.51
2022-09-28T14:14:26.078Z,13.37
2022-09-28T14:16:33.345Z,13.29
2022-09-28T14:18:39.670Z,13.32
2022-09-28T14:20:56.162Z,13.38
2022-09-28T14:23:28.134Z,13.61
2022-09-28T14:25:36.110Z,13.78
2022-09-28T14:28:03.077Z,13.78
2022-09-28T14:30:22.882Z,13.69
2022-09-28T14:32:36.227Z,13.76
2022-09-28T14:34:44.169Z,13.84
2022-09-28T14:37:04.446Z,13.78
2022-09-28T14:39:37.664Z,13.66
2022-09-28T14:41:45.892Z,13.67
2022-09-28T14:44:05.395Z,13.56
2022-09-28T14:46:38.292Z,13.53
2022-09-28T14:48:49.656Z,13.43
2022-09-28T14:50:55.842Z,13.39
2022-09-28T14:53:07.381Z,13.42
2022-09-28T14:55:18.310Z,13.42
2022-09-28T14:57:27.031Z,13.40
2022-09-28T14:59:36.612Z,13.47
2022-09-28T15:01:42.314Z,13.51
2022-09-28T15:03:51.111Z,13.64
2022-09-28T15:05:55.975Z,13.61
2022-09-28T15:08:01.934Z,13.61
2022-09-28T15:10:27.659Z,13.65
2022-09-28T15:12:33.891Z,13.60
2022-09-28T15:14:54.031Z,13.63
2022-09-28T15:17:03.487Z,13.73
2022-09-28T15:19:26.379Z,13.69
2022-09-28T15:21:39.838Z,13.68
2022-09-28T15:23:48.055Z,13.58
2022-09-28T15:25:55.146Z,13.54
2022-09-28T15:28:03.519Z,13.47
2022-09-28T15:30:25.474Z,13.41
2022-09-28T15:32:32.336Z,13.29
2022-09-28T15:34:51.313Z,13.27
2022-09-28T15:36:56.465Z,13.22
2022-09-28T15:39:08.806Z,13.30
2022-09-28T15:41:13.819Z,13.25
2022-09-28T15:43:29.185Z,13.23
2022-09-28T15:45:44.673Z,13.28
2022-09-28T15:47:49.434Z,13.33
2022-09-28T15:50:00.038Z,13.40
2022-09-28T15:52:05.063Z,13.46
2022-09-28T15:54:19.770Z,13.45
2022-09-28T15:56:25.051Z,13.41
2022-09-28T15:58:29.909Z,13.39
2022-09-28T16:00:35.352Z,13.28
2022-09-28T16:03:01.486Z,13.51
2022-09-28T16:05:07.164Z,13.62
2022-09-28T16:07:27.924Z,13.75
2022-09-28T16:09:40.907Z,13.78
2022-09-28T16:11:49.895Z,13.80
2022-09-28T16:14:01.854Z,13.79
2022-09-28T16:16:06.731Z,13.74
2022-09-28T16:18:23.682Z,13.72
2022-09-28T16:20:32.228Z,13.65
2022-09-28T16:22:37.013Z,13.59
2022-09-28T16:24:42.087Z,13.53
2022-09-28T16:26:46.978Z,13.50
2022-09-28T16:28:53.773Z,13.49
2022-09-28T16:31:07.598Z,13.51
2022-09-28T16:33:40.693Z,13.51
2022-09-28T16:35:53.518Z,13.50
2022-09-28T16:38:04.056Z,13.51
2022-09-28T16:40:10.316Z,13.51
2022-09-28T16:42:15.763Z,13.54
2022-09-28T16:44:26.267Z,13.56
2022-09-28T16:46:37.503Z,13.55
2022-09-28T16:48:48.915Z,13.53
2022-09-28T16:50:55.273Z,13.48
2022-09-28T16:53:17.063Z,13.43
2022-09-28T16:55:39.590Z,13.39
2022-09-28T16:57:45.433Z,13.38
2022-09-28T16:59:50.189Z,13.40
2022-09-28T17:01:56.667Z,13.41
2022-09-28T17:04:04.784Z,13.43
2022-09-28T17:06:13.970Z,13.43
2022-09-28T17:08:20.265Z,13.43
2022-09-28T17:10:31.928Z,13.39
2022-09-28T17:12:37.751Z,13.36
2022-09-28T17:14:43.031Z,13.28
2022-09-28T17:17:07.295Z,13.20
2022-09-28T17:19:23.805Z,13.16
2022-09-28T17:21:29.335Z,13.12
2022-09-28T17:23:34.477Z,13.13
2022-09-28T17:25:40.534Z,13.12
2022-09-28T17:27:48.146Z,13.09
2022-09-28T17:29:52.941Z,13.02
2022-09-28T17:31:57.711Z,12.98
2022-09-28T17:34:02.594Z,12.99
2022-09-28T17:36:15.869Z,12.98
2022-09-28T17:38:20.636Z,12.93
2022-09-28T17:40:28.486Z,12.90
2022-09-28T17:42:33.533Z,12.88
2022-09-28T17:44:38.510Z,12.85
2022-09-28T17:46:48.740Z,12.85
2022-09-28T17:48:53.805Z,12.83
2022-09-28T17:50:59.935Z,12.81
2022-09-28T17:53:07.955Z,12.83
2022-09-28T17:55:12.922Z,12.79
2022-09-28T17:57:17.724Z,12.76
2022-09-28T17:59:22.491Z,12.73
2022-09-28T18:01:30.235Z,12.71
2022-09-28T18:03:35.157Z,12.66
2022-09-28T18:05:40.441Z,12.63
2022-09-28T18:07:47.804Z,12.61
2022-09-28T18:09:58.626Z,12.60
2022-09-28T18:12:07.329Z,12.59
2022-09-28T18:14:12.442Z,12.55
2022-09-28T18:16:19.716Z,12.57
2022-09-28T18:18:25.067Z,12.56
2022-09-28T18:20:29.995Z,12.58
2022-09-28T18:22:34.809Z,12.48
2022-09-28T18:24:39.910Z,12.27
2022-09-28T18:26:47.278Z,12.15
2022-09-28T18:28:56.274Z,12.08
2022-09-28T18:31:01.128Z,11.99
2022-09-28T18:33:06.366Z,11.93
2022-09-28T18:35:13.034Z,11.89
2022-09-28T18:37:17.918Z,11.86
2022-09-28T18:39:23.891Z,11.83
2022-09-28T18:41:29.427Z,11.83
2022-09-28T18:43:37.227Z,11.78
2022-09-28T18:45:42.341Z,11.76
2022-09-28T18:47:47.782Z,11.74
2022-09-28T18:49:53.071Z,11.68
2022-09-28T18:51:57.631Z,11.59
2022-09-28T18:54:07.202Z,11.52
2022-09-28T18:56:14.600Z,11.57
2022-09-28T18:58:19.333Z,11.63
2022-09-28T19:00:26.729Z,11.72
2022-09-28T19:02:32.096Z,11.80
2022-09-28T19:04:37.064Z,11.83
2022-09-28T19:06:44.559Z,11.79
2022-09-28T19:08:55.603Z,11.75
2022-09-28T19:11:09.480Z,11.72
2022-09-28T19:13:14.280Z,11.67
2022-09-28T19:15:19.589Z,11.65
2022-09-28T19:17:27.014Z,11.62
2022-09-28T19:19:31.912Z,11.57
2022-09-28T19:21:36.791Z,11.55
2022-09-28T19:23:44.816Z,11.50
2022-09-28T19:25:53.041Z,11.42
2022-09-28T19:27:58.186Z,11.32
2022-09-28T19:30:03.395Z,11.26
2022-09-28T19:32:08.253Z,11.23
2022-09-28T19:34:16.286Z,11.17
2022-09-28T19:36:23.797Z,11.16
2022-09-28T19:38:31.090Z,11.16
2022-09-28T19:40:39.755Z,11.17
2022-09-28T19:42:44.637Z,11.17
2022-09-28T19:44:49.948Z,11.13
2022-09-28T19:46:56.138Z,11.13
2022-09-28T19:49:03.280Z,11.13
2022-09-28T19:51:11.032Z,11.02
2022-09-28T19:53:16.010Z,10.95
2022-09-28T19:55:21.275Z,10.92
2022-09-28T19:57:26.216Z,10.84
2022-09-28T19:59:31.027Z,10.83
2022-09-28T20:01:36.130Z,10.80
2022-09-28T20:03:40.932Z,10.78
2022-09-28T20:05:45.844Z,10.74
2022-09-28T20:07:53.429Z,10.75
2022-09-28T20:09:58.335Z,10.74
2022-09-28T20:12:03.602Z,10.76
2022-09-28T20:14:10.045Z,10.76
2022-09-28T20:16:16.749Z,10.76
2022-09-28T20:18:21.829Z,10.77
2022-09-28T20:20:27.016Z,10.79
2022-09-28T20:22:32.067Z,10.78
2022-09-28T20:24:39.484Z,10.79
2022-09-28T20:26:44.469Z,10.78
2022-09-28T20:28:49.647Z,10.78
2022-09-28T20:30:54.936Z,10.78
2022-09-28T20:33:00.158Z,10.75
2022-09-28T20:35:04.934Z,10.73
2022-09-28T20:37:09.888Z,10.73
2022-09-28T20:39:15.194Z,10.70
2022-09-28T20:41:24.758Z,10.71
2022-09-28T20:43:31.289Z,10.70
2022-09-28T20:45:38.439Z,10.71
2022-09-28T20:47:43.271Z,10.60
2022-09-28T20:49:48.183Z,10.53
2022-09-28T20:51:52.907Z,10.48
2022-09-28T20:53:59.299Z,10.42
2022-09-28T20:56:05.915Z,10.43
2022-09-28T20:58:13.248Z,10.41
2022-09-28T21:00:18.549Z,10.31
2022-09-28T21:02:23.170Z,10.11
2022-09-28T21:04:28.082Z,9.97
2022-09-28T21:06:35.002Z,9.89
2022-09-28T21:08:39.757Z,9.85
2022-09-28T21:10:47.175Z,9.77
2022-09-28T21:12:53.306Z,9.80
2022-09-28T21:15:05.540Z,9.84
2022-09-28T21:17:10.735Z,9.89
2022-09-28T21:19:15.527Z,9.95
2022-09-28T21:21:21.725Z,10.00
2022-09-28T21:23:26.735Z,10.02
2022-09-28T21:25:31.504Z,10.01
2022-09-28T21:27:36.895Z,10.01
2022-09-28T21:29:41.718Z,10.00
2022-09-28T21:31:50.013Z,9.97
2022-09-28T21:33:54.742Z,9.94
2022-09-28T21:36:03.320Z,9.95
2022-09-28T21:38:08.363Z,9.93
2022-09-28T21:40:13.505Z,9.93
2022-09-28T21:42:18.329Z,9.93
2022-09-28T21:44:23.088Z,9.92
2022-09-28T21:46:33.721Z,9.87
2022-09-28T21:48:41.259Z,9.82
2022-09-28T21:50:46.012Z,9.82
2022-09-28T21:52:51.180Z,9.82
2022-09-28T21:54:55.921Z,9.81
2022-09-28T21:57:01.230Z,9.79
2022-09-28T21:59:05.708Z,9.75
2022-09-28T22:01:14.662Z,9.72
2022-09-28T22:03:19.672Z,9.70
2022-09-28T22:05:28.191Z,9.72
2022-09-28T22:07:32.950Z,9.70
2022-09-28T22:09:37.665Z,9.71
2022-09-28T22:11:42.403Z,9.71
2022-09-28T22:13:48.799Z,9.71
2022-09-28T22:15:55.650Z,9.69
2022-09-28T22:18:01.020Z,9.69
2022-09-28T22:20:05.574Z,9.63
2022-09-28T22:22:12.939Z,9.61
2022-09-28T22:24:17.791Z,9.57
2022-09-28T22:26:23.974Z,9.55
2022-09-28T22:28:28.749Z,9.53
2022-09-28T22:30:33.655Z,9.54
2022-09-28T22:32:38.476Z,9.55
2022-09-28T22:34:43.264Z,9.53
2022-09-28T22:36:48.445Z,9.53
2022-09-28T22:38:57.462Z,9.56
2022-09-28T22:41:03.853Z,9.58
2022-09-28T22:43:08.845Z,9.60
2022-09-28T22:45:13.674Z,9.60
2022-09-28T22:47:18.414Z,9.62
2022-09-28T22:49:23.800Z,9.64
2022-09-28T22:51:30.213Z,9.67
2022-09-28T22:53:35.749Z,9.69
2022-09-28T22:55:43.950Z,9.71
2022-09-28T22:57:48.664Z,9.70
2022-09-28T22:59:53.468Z,9.69
2022-09-28T23:01:58.539Z,9.70
2022-09-28T23:04:03.706Z,9.71
2022-09-28T23:06:09.409Z,9.75
2022-09-28T23:08:14.142Z,9.79
2022-09-28T23:10:18.939Z,9.81
2022-09-28T23:12:26.494Z,9.84
2022-09-28T23:14:31.350Z,9.84
2022-09-28T23:16:36.096Z,9.85
2022-09-28T23:18:43.750Z,9.84
2022-09-28T23:20:55.693Z,9.84
2022-09-28T23:23:00.413Z,9.75
2022-09-28T23:25:05.171Z,9.69
2022-09-28T23:27:09.958Z,9.61
2022-09-28T23:29:17.343Z,9.55
2022-09-28T23:31:24.486Z,9.53
2022-09-28T23:33:29.363Z,9.49
2022-09-28T23:35:35.867Z,9.45
2022-09-28T23:37:40.888Z,9.42
2022-09-28T23:39:46.271Z,9.39
2022-09-28T23:41:51.408Z,9.39
2022-09-28T23:43:56.133Z,9.34
2022-09-28T23:46:03.577Z,9.30
2022-09-28T23:48:08.654Z,9.27
2022-09-28T23:50:13.406Z,9.26
2022-09-28T23:52:18.171Z,9.25
2022-09-28T23:54:22.904Z,9.24
2022-09-28T23:56:27.586Z,9.23
2022-09-28T23:58:32.386Z,9.22
